sensor_id;sensor_type;location;lat;lon;timestamp;P1;durP1;ratioP1;P2;durP2;ratioP2
1136;SDS011;557;48.466;7.950;2023-05-07T00:02:43;3.90;;;2.97;;
1136;SDS011;557;48.466;7.950;2023-05-07T00:05:30;3.20;;;2.87;;
1136;SDS011;557;48.466;7.950;2023-05-07T00:08:19;3.83;;;2.97;;
1136;SDS011;557;48.466;7.950;2023-05-07T00:11:07;4.13;;;3.53;;
1136;SDS011;557;48.466;7.950;2023-05-07T00:13:54;4.57;;;3.30;;
1136;SDS011;557;48.466;7.950;2023-05-07T00:16:41;4.90;;;2.90;;
1136;SDS011;557;48.466;7.950;2023-05-07T00:19:29;4.47;;;3.83;;
1136;SDS011;557;48.466;7.950;2023-05-07T00:22:17;3.07;;;2.60;;
1136;SDS011;557;48.466;7.950;2023-05-07T00:25:06;4.27;;;3.60;;
1136;SDS011;557;48.466;7.950;2023-05-07T00:27:55;3.73;;;3.00;;
1136;SDS011;557;48.466;7.950;2023-05-07T00:30:43;4.63;;;2.73;;
1136;SDS011;557;48.466;7.950;2023-05-07T00:33:30;4.57;;;3.27;;
1136;SDS011;557;48.466;7.950;2023-05-07T00:36:17;3.30;;;2.83;;
1136;SDS011;557;48.466;7.950;2023-05-07T00:39:05;4.40;;;3.10;;
1136;SDS011;557;48.466;7.950;2023-05-07T00:41:54;3.90;;;2.60;;
1136;SDS011;557;48.466;7.950;2023-05-07T00:44:41;4.17;;;2.93;;
1136;SDS011;557;48.466;7.950;2023-05-07T00:47:29;4.50;;;3.30;;
1136;SDS011;557;48.466;7.950;2023-05-07T00:50:17;3.20;;;2.70;;
1136;SDS011;557;48.466;7.950;2023-05-07T00:53:04;3.67;;;2.80;;
1136;SDS011;557;48.466;7.950;2023-05-07T00:55:52;3.27;;;2.83;;
1136;SDS011;557;48.466;7.950;2023-05-07T00:58:41;4.43;;;3.17;;
1136;SDS011;557;48.466;7.950;2023-05-07T01:01:29;3.63;;;3.20;;
1136;SDS011;557;48.466;7.950;2023-05-07T01:04:17;5.13;;;3.13;;
1136;SDS011;557;48.466;7.950;2023-05-07T01:07:05;4.10;;;3.10;;
1136;SDS011;557;48.466;7.950;2023-05-07T01:09:52;4.97;;;3.20;;
1136;SDS011;557;48.466;7.950;2023-05-07T01:12:40;3.80;;;3.17;;
1136;SDS011;557;48.466;7.950;2023-05-07T01:15:30;5.73;;;3.00;;
1136;SDS011;557;48.466;7.950;2023-05-07T01:18:17;4.20;;;2.80;;
1136;SDS011;557;48.466;7.950;2023-05-07T01:21:06;3.30;;;3.00;;
1136;SDS011;557;48.466;7.950;2023-05-07T01:23:59;3.70;;;2.90;;
1136;SDS011;557;48.466;7.950;2023-05-07T01:26:47;4.70;;;3.33;;
1136;SDS011;557;48.466;7.950;2023-05-07T01:29:34;3.50;;;3.03;;
1136;SDS011;557;48.466;7.950;2023-05-07T01:32:23;2.77;;;2.50;;
1136;SDS011;557;48.466;7.950;2023-05-07T01:35:19;3.30;;;2.93;;
1136;SDS011;557;48.466;7.950;2023-05-07T01:38:11;3.60;;;2.73;;
1136;SDS011;557;48.466;7.950;2023-05-07T01:41:01;3.30;;;2.60;;
1136;SDS011;557;48.466;7.950;2023-05-07T01:43:48;3.93;;;3.33;;
1136;SDS011;557;48.466;7.950;2023-05-07T01:46:37;4.40;;;2.90;;
1136;SDS011;557;48.466;7.950;2023-05-07T01:49:24;4.83;;;3.20;;
1136;SDS011;557;48.466;7.950;2023-05-07T01:52:12;5.10;;;3.50;;
1136;SDS011;557;48.466;7.950;2023-05-07T01:55:00;4.57;;;3.20;;
1136;SDS011;557;48.466;7.950;2023-05-07T01:57:49;4.40;;;3.60;;
1136;SDS011;557;48.466;7.950;2023-05-07T02:00:36;4.10;;;3.47;;
1136;SDS011;557;48.466;7.950;2023-05-07T02:03:24;5.40;;;3.77;;
1136;SDS011;557;48.466;7.950;2023-05-07T02:06:11;4.40;;;3.60;;
1136;SDS011;557;48.466;7.950;2023-05-07T02:08:58;4.40;;;3.70;;
1136;SDS011;557;48.466;7.950;2023-05-07T02:11:45;9.27;;;4.33;;
1136;SDS011;557;48.466;7.950;2023-05-07T02:14:34;5.53;;;3.20;;
1136;SDS011;557;48.466;7.950;2023-05-07T02:17:21;5.93;;;3.70;;
1136;SDS011;557;48.466;7.950;2023-05-07T02:20:09;3.47;;;3.13;;
1136;SDS011;557;48.466;7.950;2023-05-07T02:22:58;4.27;;;3.33;;
1136;SDS011;557;48.466;7.950;2023-05-07T02:25:46;4.00;;;3.47;;
1136;SDS011;557;48.466;7.950;2023-05-07T02:28:33;5.37;;;3.20;;
1136;SDS011;557;48.466;7.950;2023-05-07T02:31:22;4.07;;;3.50;;
1136;SDS011;557;48.466;7.950;2023-05-07T02:34:10;4.00;;;3.47;;
1136;SDS011;557;48.466;7.950;2023-05-07T02:36:57;5.80;;;3.80;;
1136;SDS011;557;48.466;7.950;2023-05-07T02:39:45;4.63;;;3.60;;
1136;SDS011;557;48.466;7.950;2023-05-07T02:42:33;5.17;;;3.40;;
1136;SDS011;557;48.466;7.950;2023-05-07T02:45:20;5.80;;;3.57;;
1136;SDS011;557;48.466;7.950;2023-05-07T02:48:09;3.50;;;3.20;;
1136;SDS011;557;48.466;7.950;2023-05-07T02:50:56;5.10;;;3.37;;
1136;SDS011;557;48.466;7.950;2023-05-07T02:53:43;5.83;;;3.83;;
1136;SDS011;557;48.466;7.950;2023-05-07T02:56:31;4.07;;;3.67;;
1136;SDS011;557;48.466;7.950;2023-05-07T02:59:18;5.60;;;3.00;;
1136;SDS011;557;48.466;7.950;2023-05-07T03:02:05;4.90;;;3.57;;
1136;SDS011;557;48.466;7.950;2023-05-07T03:04:54;4.77;;;3.50;;
1136;SDS011;557;48.466;7.950;2023-05-07T03:07:41;5.10;;;3.40;;
1136;SDS011;557;48.466;7.950;2023-05-07T03:10:30;4.47;;;3.40;;
1136;SDS011;557;48.466;7.950;2023-05-07T03:13:18;4.47;;;3.83;;
1136;SDS011;557;48.466;7.950;2023-05-07T03:16:05;3.50;;;3.00;;
1136;SDS011;557;48.466;7.950;2023-05-07T03:18:53;6.70;;;3.60;;
1136;SDS011;557;48.466;7.950;2023-05-07T03:21:41;5.10;;;3.63;;
1136;SDS011;557;48.466;7.950;2023-05-07T03:24:29;3.80;;;3.23;;
1136;SDS011;557;48.466;7.950;2023-05-07T03:27:16;3.77;;;3.33;;
1136;SDS011;557;48.466;7.950;2023-05-07T03:30:04;4.30;;;3.10;;
1136;SDS011;557;48.466;7.950;2023-05-07T03:32:53;4.37;;;3.47;;
1136;SDS011;557;48.466;7.950;2023-05-07T03:35:40;4.87;;;3.77;;
1136;SDS011;557;48.466;7.950;2023-05-07T03:38:29;4.00;;;3.30;;
1136;SDS011;557;48.466;7.950;2023-05-07T03:41:16;4.27;;;3.50;;
1136;SDS011;557;48.466;7.950;2023-05-07T03:44:03;4.47;;;3.20;;
1136;SDS011;557;48.466;7.950;2023-05-07T03:46:51;5.03;;;3.83;;
1136;SDS011;557;48.466;7.950;2023-05-07T03:49:38;5.63;;;4.20;;
1136;SDS011;557;48.466;7.950;2023-05-07T03:52:26;5.80;;;3.73;;
1136;SDS011;557;48.466;7.950;2023-05-07T03:55:14;4.20;;;3.70;;
1136;SDS011;557;48.466;7.950;2023-05-07T03:58:02;4.57;;;3.80;;
1136;SDS011;557;48.466;7.950;2023-05-07T04:00:49;4.03;;;3.63;;
1136;SDS011;557;48.466;7.950;2023-05-07T04:03:36;5.93;;;4.30;;
1136;SDS011;557;48.466;7.950;2023-05-07T04:06:24;9.97;;;4.03;;
1136;SDS011;557;48.466;7.950;2023-05-07T04:09:11;5.13;;;4.17;;
1136;SDS011;557;48.466;7.950;2023-05-07T04:12:00;9.30;;;5.10;;
1136;SDS011;557;48.466;7.950;2023-05-07T04:14:47;4.07;;;3.67;;
1136;SDS011;557;48.466;7.950;2023-05-07T04:17:35;5.20;;;4.00;;
1136;SDS011;557;48.466;7.950;2023-05-07T04:20:22;5.10;;;3.37;;
1136;SDS011;557;48.466;7.950;2023-05-07T04:23:10;5.20;;;4.03;;
1136;SDS011;557;48.466;7.950;2023-05-07T04:25:57;4.50;;;3.70;;
1136;SDS011;557;48.466;7.950;2023-05-07T04:28:46;6.13;;;3.77;;
1136;SDS011;557;48.466;7.950;2023-05-07T04:31:33;4.23;;;3.60;;
1136;SDS011;557;48.466;7.950;2023-05-07T04:34:20;5.13;;;3.70;;
1136;SDS011;557;48.466;7.950;2023-05-07T04:37:08;5.10;;;3.43;;
1136;SDS011;557;48.466;7.950;2023-05-07T04:39:55;4.50;;;3.40;;
1136;SDS011;557;48.466;7.950;2023-05-07T04:42:43;6.20;;;3.23;;
1136;SDS011;557;48.466;7.950;2023-05-07T04:45:32;4.10;;;3.50;;
1136;SDS011;557;48.466;7.950;2023-05-07T04:48:20;4.87;;;3.13;;
1136;SDS011;557;48.466;7.950;2023-05-07T04:51:07;4.20;;;3.57;;
1136;SDS011;557;48.466;7.950;2023-05-07T04:53:54;3.33;;;3.00;;
1136;SDS011;557;48.466;7.950;2023-05-07T04:56:42;4.90;;;2.97;;
1136;SDS011;557;48.466;7.950;2023-05-07T04:59:29;5.70;;;4.20;;
1136;SDS011;557;48.466;7.950;2023-05-07T05:02:18;4.00;;;3.20;;
1136;SDS011;557;48.466;7.950;2023-05-07T05:05:05;4.37;;;3.23;;
1136;SDS011;557;48.466;7.950;2023-05-07T05:07:53;5.33;;;3.07;;
1136;SDS011;557;48.466;7.950;2023-05-07T05:10:41;4.50;;;2.90;;
1136;SDS011;557;48.466;7.950;2023-05-07T05:13:28;3.57;;;2.60;;
1136;SDS011;557;48.466;7.950;2023-05-07T05:16:16;5.70;;;3.93;;
1136;SDS011;557;48.466;7.950;2023-05-07T05:19:05;5.53;;;3.60;;
1136;SDS011;557;48.466;7.950;2023-05-07T05:21:52;7.33;;;3.50;;
1136;SDS011;557;48.466;7.950;2023-05-07T05:24:40;3.60;;;2.87;;
1136;SDS011;557;48.466;7.950;2023-05-07T05:27:28;4.73;;;2.80;;
1136;SDS011;557;48.466;7.950;2023-05-07T05:30:15;4.33;;;2.70;;
1136;SDS011;557;48.466;7.950;2023-05-07T05:33:03;3.93;;;3.20;;
1136;SDS011;557;48.466;7.950;2023-05-07T05:35:53;3.63;;;3.10;;
1136;SDS011;557;48.466;7.950;2023-05-07T05:38:40;6.20;;;3.53;;
1136;SDS011;557;48.466;7.950;2023-05-07T05:41:28;6.13;;;3.37;;
1136;SDS011;557;48.466;7.950;2023-05-07T05:44:15;5.50;;;3.50;;
1136;SDS011;557;48.466;7.950;2023-05-07T05:47:02;8.70;;;3.90;;
1136;SDS011;557;48.466;7.950;2023-05-07T05:49:50;3.97;;;3.40;;
1136;SDS011;557;48.466;7.950;2023-05-07T05:52:39;4.30;;;3.63;;
1136;SDS011;557;48.466;7.950;2023-05-07T05:55:26;4.33;;;3.27;;
1136;SDS011;557;48.466;7.950;2023-05-07T05:58:13;4.73;;;3.70;;
1136;SDS011;557;48.466;7.950;2023-05-07T06:01:01;4.20;;;3.60;;
1136;SDS011;557;48.466;7.950;2023-05-07T06:03:49;4.20;;;3.80;;
1136;SDS011;557;48.466;7.950;2023-05-07T06:06:36;4.17;;;3.27;;
1136;SDS011;557;48.466;7.950;2023-05-07T06:09:25;3.87;;;3.43;;
1136;SDS011;557;48.466;7.950;2023-05-07T06:12:12;6.73;;;3.50;;
1136;SDS011;557;48.466;7.950;2023-05-07T06:14:59;5.30;;;4.10;;
1136;SDS011;557;48.466;7.950;2023-05-07T06:17:47;4.60;;;3.77;;
1136;SDS011;557;48.466;7.950;2023-05-07T06:20:34;4.40;;;2.90;;
1136;SDS011;557;48.466;7.950;2023-05-07T06:23:21;5.33;;;4.00;;
1136;SDS011;557;48.466;7.950;2023-05-07T06:26:10;3.50;;;3.00;;
1136;SDS011;557;48.466;7.950;2023-05-07T06:28:57;6.10;;;3.50;;
1136;SDS011;557;48.466;7.950;2023-05-07T06:31:45;5.93;;;3.60;;
1136;SDS011;557;48.466;7.950;2023-05-07T06:34:32;9.50;;;3.63;;
1136;SDS011;557;48.466;7.950;2023-05-07T06:37:19;4.00;;;3.30;;
1136;SDS011;557;48.466;7.950;2023-05-07T06:40:07;5.50;;;4.00;;
1136;SDS011;557;48.466;7.950;2023-05-07T06:42:56;3.80;;;3.10;;
1136;SDS011;557;48.466;7.950;2023-05-07T06:45:44;9.20;;;3.53;;
1136;SDS011;557;48.466;7.950;2023-05-07T06:48:31;6.00;;;2.73;;
1136;SDS011;557;48.466;7.950;2023-05-07T06:51:18;7.73;;;3.10;;
1136;SDS011;557;48.466;7.950;2023-05-07T06:54:06;3.70;;;3.40;;
1136;SDS011;557;48.466;7.950;2023-05-07T06:56:53;4.73;;;3.13;;
1136;SDS011;557;48.466;7.950;2023-05-07T06:59:42;4.60;;;3.80;;
1136;SDS011;557;48.466;7.950;2023-05-07T07:02:29;4.93;;;3.47;;
1136;SDS011;557;48.466;7.950;2023-05-07T07:05:16;4.27;;;3.87;;
1136;SDS011;557;48.466;7.950;2023-05-07T07:08:04;6.50;;;4.17;;
1136;SDS011;557;48.466;7.950;2023-05-07T07:10:51;4.70;;;3.93;;
1136;SDS011;557;48.466;7.950;2023-05-07T07:13:39;5.20;;;4.70;;
1136;SDS011;557;48.466;7.950;2023-05-07T07:16:28;5.10;;;4.60;;
1136;SDS011;557;48.466;7.950;2023-05-07T07:19:15;5.07;;;4.57;;
1136;SDS011;557;48.466;7.950;2023-05-07T07:22:02;5.47;;;4.50;;
1136;SDS011;557;48.466;7.950;2023-05-07T07:24:49;5.30;;;4.30;;
1136;SDS011;557;48.466;7.950;2023-05-07T07:27:37;6.20;;;4.70;;
1136;SDS011;557;48.466;7.950;2023-05-07T07:30:25;5.50;;;4.43;;
1136;SDS011;557;48.466;7.950;2023-05-07T07:33:14;5.03;;;3.87;;
1136;SDS011;557;48.466;7.950;2023-05-07T07:36:01;7.43;;;5.67;;
1136;SDS011;557;48.466;7.950;2023-05-07T07:38:48;6.47;;;4.83;;
1136;SDS011;557;48.466;7.950;2023-05-07T07:41:36;7.77;;;5.07;;
1136;SDS011;557;48.466;7.950;2023-05-07T07:44:23;7.17;;;5.00;;
1136;SDS011;557;48.466;7.950;2023-05-07T07:47:10;6.03;;;5.33;;
1136;SDS011;557;48.466;7.950;2023-05-07T07:49:59;5.00;;;4.50;;
1136;SDS011;557;48.466;7.950;2023-05-07T07:52:46;6.10;;;4.90;;
1136;SDS011;557;48.466;7.950;2023-05-07T07:55:37;5.70;;;5.10;;
1136;SDS011;557;48.466;7.950;2023-05-07T07:58:25;7.30;;;5.87;;
1136;SDS011;557;48.466;7.950;2023-05-07T08:01:12;4.30;;;3.53;;
1136;SDS011;557;48.466;7.950;2023-05-07T08:04:00;6.10;;;5.23;;
1136;SDS011;557;48.466;7.950;2023-05-07T08:06:50;10.93;;;6.03;;
1136;SDS011;557;48.466;7.950;2023-05-07T08:09:37;5.70;;;4.97;;
1136;SDS011;557;48.466;7.950;2023-05-07T08:12:25;7.60;;;5.97;;
1136;SDS011;557;48.466;7.950;2023-05-07T08:15:12;6.63;;;5.80;;
1136;SDS011;557;48.466;7.950;2023-05-07T08:18:02;7.17;;;6.47;;
1136;SDS011;557;48.466;7.950;2023-05-07T08:20:49;7.93;;;6.77;;
1136;SDS011;557;48.466;7.950;2023-05-07T08:23:38;6.70;;;6.00;;
1136;SDS011;557;48.466;7.950;2023-05-07T08:26:25;8.63;;;6.60;;
1136;SDS011;557;48.466;7.950;2023-05-07T08:29:13;6.80;;;5.60;;
1136;SDS011;557;48.466;7.950;2023-05-07T08:32:00;5.70;;;5.00;;
1136;SDS011;557;48.466;7.950;2023-05-07T08:34:47;6.10;;;5.13;;
1136;SDS011;557;48.466;7.950;2023-05-07T08:37:35;7.33;;;5.80;;
1136;SDS011;557;48.466;7.950;2023-05-07T08:40:24;5.40;;;4.90;;
1136;SDS011;557;48.466;7.950;2023-05-07T08:43:13;6.20;;;5.60;;
1136;SDS011;557;48.466;7.950;2023-05-07T08:46:01;5.70;;;5.20;;
1136;SDS011;557;48.466;7.950;2023-05-07T08:48:49;5.97;;;5.47;;
1136;SDS011;557;48.466;7.950;2023-05-07T08:51:37;5.73;;;5.23;;
1136;SDS011;557;48.466;7.950;2023-05-07T08:54:24;8.20;;;6.10;;
1136;SDS011;557;48.466;7.950;2023-05-07T08:57:13;6.13;;;5.53;;
1136;SDS011;557;48.466;7.950;2023-05-07T09:00:01;7.00;;;5.60;;
1136;SDS011;557;48.466;7.950;2023-05-07T09:02:49;6.70;;;6.07;;
1136;SDS011;557;48.466;7.950;2023-05-07T09:05:36;7.27;;;5.87;;
1136;SDS011;557;48.466;7.950;2023-05-07T09:08:24;7.03;;;6.40;;
1136;SDS011;557;48.466;7.950;2023-05-07T09:11:12;6.30;;;5.70;;
1136;SDS011;557;48.466;7.950;2023-05-07T09:14:01;10.77;;;6.43;;
1136;SDS011;557;48.466;7.950;2023-05-07T09:16:51;6.80;;;6.00;;
1136;SDS011;557;48.466;7.950;2023-05-07T09:19:39;6.77;;;6.10;;
1136;SDS011;557;48.466;7.950;2023-05-07T09:22:26;8.47;;;6.50;;
1136;SDS011;557;48.466;7.950;2023-05-07T09:25:13;6.50;;;5.97;;
1136;SDS011;557;48.466;7.950;2023-05-07T09:28:01;6.73;;;6.13;;
1136;SDS011;557;48.466;7.950;2023-05-07T09:30:53;6.80;;;6.20;;
1136;SDS011;557;48.466;7.950;2023-05-07T09:33:42;6.87;;;5.90;;
1136;SDS011;557;48.466;7.950;2023-05-07T09:40:19;6.57;;;5.80;;
1136;SDS011;557;48.466;7.950;2023-05-07T09:43:08;7.40;;;6.70;;
1136;SDS011;557;48.466;7.950;2023-05-07T09:45:58;7.90;;;7.20;;
1136;SDS011;557;48.466;7.950;2023-05-07T09:48:48;8.50;;;7.80;;
1136;SDS011;557;48.466;7.950;2023-05-07T09:51:39;8.83;;;7.70;;
1136;SDS011;557;48.466;7.950;2023-05-07T09:54:32;7.80;;;7.10;;
1136;SDS011;557;48.466;7.950;2023-05-07T09:57:19;9.60;;;7.47;;
1136;SDS011;557;48.466;7.950;2023-05-07T10:00:08;7.37;;;6.77;;
1136;SDS011;557;48.466;7.950;2023-05-07T10:02:58;7.80;;;7.10;;
1136;SDS011;557;48.466;7.950;2023-05-07T10:05:48;7.33;;;6.47;;
1136;SDS011;557;48.466;7.950;2023-05-07T10:08:37;8.20;;;7.40;;
1136;SDS011;557;48.466;7.950;2023-05-07T10:11:24;8.60;;;7.90;;
1136;SDS011;557;48.466;7.950;2023-05-07T10:14:12;8.20;;;7.60;;
1136;SDS011;557;48.466;7.950;2023-05-07T10:17:00;8.87;;;8.13;;
1136;SDS011;557;48.466;7.950;2023-05-07T10:19:50;9.27;;;8.47;;
1136;SDS011;557;48.466;7.950;2023-05-07T10:22:41;9.67;;;8.87;;
1136;SDS011;557;48.466;7.950;2023-05-07T10:25:30;8.73;;;8.03;;
1136;SDS011;557;48.466;7.950;2023-05-07T10:28:19;8.03;;;7.43;;
1136;SDS011;557;48.466;7.950;2023-05-07T10:31:11;7.97;;;7.47;;
1136;SDS011;557;48.466;7.950;2023-05-07T10:34:11;7.63;;;7.10;;
1136;SDS011;557;48.466;7.950;2023-05-07T10:37:04;8.37;;;7.70;;
1136;SDS011;557;48.466;7.950;2023-05-07T10:39:52;8.20;;;7.60;;
1136;SDS011;557;48.466;7.950;2023-05-07T10:42:52;8.73;;;8.13;;
1136;SDS011;557;48.466;7.950;2023-05-07T10:45:41;8.57;;;7.97;;
1136;SDS011;557;48.466;7.950;2023-05-07T10:48:28;9.30;;;8.67;;
1136;SDS011;557;48.466;7.950;2023-05-07T10:51:19;8.47;;;7.87;;
1136;SDS011;557;48.466;7.950;2023-05-07T10:54:23;9.13;;;8.33;;
1136;SDS011;557;48.466;7.950;2023-05-07T11:03:29;9.40;;;8.70;;
1136;SDS011;557;48.466;7.950;2023-05-07T11:06:16;8.53;;;7.83;;
1136;SDS011;557;48.466;7.950;2023-05-07T11:09:03;9.37;;;8.73;;
1136;SDS011;557;48.466;7.950;2023-05-07T11:11:52;9.30;;;8.60;;
1136;SDS011;557;48.466;7.950;2023-05-07T11:14:44;8.97;;;8.10;;
1136;SDS011;557;48.466;7.950;2023-05-07T11:17:33;8.67;;;8.07;;
1136;SDS011;557;48.466;7.950;2023-05-07T11:20:28;8.70;;;8.10;;
1136;SDS011;557;48.466;7.950;2023-05-07T11:26:46;8.77;;;8.17;;
1136;SDS011;557;48.466;7.950;2023-05-07T11:29:35;8.80;;;8.23;;
1136;SDS011;557;48.466;7.950;2023-05-07T11:32:23;8.83;;;8.33;;
1136;SDS011;557;48.466;7.950;2023-05-07T11:35:11;8.40;;;7.90;;
1136;SDS011;557;48.466;7.950;2023-05-07T11:37:59;9.73;;;9.00;;
1136;SDS011;557;48.466;7.950;2023-05-07T11:40:51;9.40;;;8.90;;
1136;SDS011;557;48.466;7.950;2023-05-07T11:43:53;9.83;;;9.23;;
1136;SDS011;557;48.466;7.950;2023-05-07T11:46:44;9.87;;;9.27;;
1136;SDS011;557;48.466;7.950;2023-05-07T11:49:31;9.00;;;8.50;;
1136;SDS011;557;48.466;7.950;2023-05-07T11:52:19;9.53;;;8.93;;
1136;SDS011;557;48.466;7.950;2023-05-07T11:55:07;9.70;;;9.10;;
1136;SDS011;557;48.466;7.950;2023-05-07T11:57:55;9.57;;;8.97;;
1136;SDS011;557;48.466;7.950;2023-05-07T12:00:47;9.20;;;8.60;;
1136;SDS011;557;48.466;7.950;2023-05-07T12:03:37;8.60;;;8.10;;
1136;SDS011;557;48.466;7.950;2023-05-07T12:06:27;9.37;;;8.77;;
1136;SDS011;557;48.466;7.950;2023-05-07T12:09:15;9.00;;;8.40;;
1136;SDS011;557;48.466;7.950;2023-05-07T12:12:03;8.93;;;8.33;;
1136;SDS011;557;48.466;7.950;2023-05-07T12:14:50;9.90;;;9.20;;
1136;SDS011;557;48.466;7.950;2023-05-07T12:17:38;9.30;;;8.63;;
1136;SDS011;557;48.466;7.950;2023-05-07T12:20:28;8.53;;;7.93;;
1136;SDS011;557;48.466;7.950;2023-05-07T12:23:15;9.33;;;8.73;;
1136;SDS011;557;48.466;7.950;2023-05-07T12:26:03;10.23;;;9.40;;
1136;SDS011;557;48.466;7.950;2023-05-07T12:28:51;9.70;;;9.10;;
1136;SDS011;557;48.466;7.950;2023-05-07T12:31:40;9.27;;;8.67;;
1136;SDS011;557;48.466;7.950;2023-05-07T12:34:27;8.60;;;8.10;;
1136;SDS011;557;48.466;7.950;2023-05-07T12:37:22;9.70;;;9.00;;
1136;SDS011;557;48.466;7.950;2023-05-07T12:40:10;9.03;;;8.43;;
1136;SDS011;557;48.466;7.950;2023-05-07T12:42:58;9.27;;;8.57;;
1136;SDS011;557;48.466;7.950;2023-05-07T12:45:46;13.10;;;12.10;;
1136;SDS011;557;48.466;7.950;2023-05-07T12:48:36;9.97;;;9.07;;
1136;SDS011;557;48.466;7.950;2023-05-07T12:51:24;10.50;;;9.60;;
1136;SDS011;557;48.466;7.950;2023-05-07T12:54:12;9.00;;;8.30;;
1136;SDS011;557;48.466;7.950;2023-05-07T12:57:00;9.40;;;8.70;;
1136;SDS011;557;48.466;7.950;2023-05-07T12:59:49;8.23;;;7.53;;
1136;SDS011;557;48.466;7.950;2023-05-07T13:02:37;8.93;;;7.70;;
1136;SDS011;557;48.466;7.950;2023-05-07T13:05:26;10.23;;;7.70;;
1136;SDS011;557;48.466;7.950;2023-05-07T13:08:22;7.90;;;7.00;;
1136;SDS011;557;48.466;7.950;2023-05-07T13:11:12;8.07;;;7.47;;
1136;SDS011;557;48.466;7.950;2023-05-07T13:14:00;8.07;;;7.47;;
1136;SDS011;557;48.466;7.950;2023-05-07T13:16:48;7.27;;;6.70;;
1136;SDS011;557;48.466;7.950;2023-05-07T13:19:35;7.00;;;6.50;;
1136;SDS011;557;48.466;7.950;2023-05-07T13:22:23;6.90;;;6.40;;
1136;SDS011;557;48.466;7.950;2023-05-07T13:25:10;6.87;;;6.17;;
1136;SDS011;557;48.466;7.950;2023-05-07T13:27:59;6.07;;;5.50;;
1136;SDS011;557;48.466;7.950;2023-05-07T13:30:46;5.83;;;5.33;;
1136;SDS011;557;48.466;7.950;2023-05-07T13:33:34;6.03;;;5.63;;
1136;SDS011;557;48.466;7.950;2023-05-07T13:36:21;5.43;;;5.03;;
1136;SDS011;557;48.466;7.950;2023-05-07T13:39:09;5.13;;;4.73;;
1136;SDS011;557;48.466;7.950;2023-05-07T13:41:56;6.27;;;5.10;;
1136;SDS011;557;48.466;7.950;2023-05-07T13:44:44;5.73;;;4.90;;
1136;SDS011;557;48.466;7.950;2023-05-07T13:47:32;5.60;;;5.10;;
1136;SDS011;557;48.466;7.950;2023-05-07T13:50:19;5.03;;;4.63;;
1136;SDS011;557;48.466;7.950;2023-05-07T13:53:07;4.93;;;4.53;;
1136;SDS011;557;48.466;7.950;2023-05-07T13:55:54;4.90;;;4.50;;
1136;SDS011;557;48.466;7.950;2023-05-07T13:58:41;6.00;;;4.97;;
1136;SDS011;557;48.466;7.950;2023-05-07T14:01:30;5.63;;;5.13;;
1136;SDS011;557;48.466;7.950;2023-05-07T14:04:17;5.30;;;4.90;;
1136;SDS011;557;48.466;7.950;2023-05-07T14:07:05;5.20;;;4.80;;
1136;SDS011;557;48.466;7.950;2023-05-07T14:09:52;4.97;;;4.57;;
1136;SDS011;557;48.466;7.950;2023-05-07T14:12:39;5.27;;;4.87;;
1136;SDS011;557;48.466;7.950;2023-05-07T14:15:27;5.60;;;5.10;;
1136;SDS011;557;48.466;7.950;2023-05-07T14:18:15;5.13;;;4.73;;
1136;SDS011;557;48.466;7.950;2023-05-07T14:21:03;5.30;;;4.83;;
1136;SDS011;557;48.466;7.950;2023-05-07T14:23:51;4.87;;;4.57;;
1136;SDS011;557;48.466;7.950;2023-05-07T14:26:39;4.77;;;4.47;;
1136;SDS011;557;48.466;7.950;2023-05-07T14:29:26;5.30;;;4.90;;
1136;SDS011;557;48.466;7.950;2023-05-07T14:32:14;5.47;;;4.97;;
1136;SDS011;557;48.466;7.950;2023-05-07T14:35:02;5.17;;;4.83;;
1136;SDS011;557;48.466;7.950;2023-05-07T14:37:50;5.10;;;4.70;;
1136;SDS011;557;48.466;7.950;2023-05-07T14:40:38;4.73;;;4.43;;
1136;SDS011;557;48.466;7.950;2023-05-07T14:43:25;5.70;;;5.30;;
1136;SDS011;557;48.466;7.950;2023-05-07T14:46:12;5.10;;;4.70;;
1136;SDS011;557;48.466;7.950;2023-05-07T14:49:01;5.33;;;4.93;;
1136;SDS011;557;48.466;7.950;2023-05-07T14:51:50;4.80;;;4.50;;
1136;SDS011;557;48.466;7.950;2023-05-07T14:54:37;5.30;;;4.90;;
1136;SDS011;557;48.466;7.950;2023-05-07T14:57:25;5.13;;;4.73;;
1136;SDS011;557;48.466;7.950;2023-05-07T15:00:12;5.40;;;5.00;;
1136;SDS011;557;48.466;7.950;2023-05-07T15:03:04;5.30;;;4.90;;
1136;SDS011;557;48.466;7.950;2023-05-07T15:05:52;5.07;;;4.73;;
1136;SDS011;557;48.466;7.950;2023-05-07T15:08:41;5.57;;;5.17;;
1136;SDS011;557;48.466;7.950;2023-05-07T15:11:28;5.57;;;5.17;;
1136;SDS011;557;48.466;7.950;2023-05-07T15:14:16;5.80;;;5.40;;
1136;SDS011;557;48.466;7.950;2023-05-07T15:17:03;6.10;;;5.60;;
1136;SDS011;557;48.466;7.950;2023-05-07T15:19:51;5.40;;;5.00;;
1136;SDS011;557;48.466;7.950;2023-05-07T15:22:39;5.20;;;4.90;;
1136;SDS011;557;48.466;7.950;2023-05-07T15:25:28;4.70;;;4.40;;
1136;SDS011;557;48.466;7.950;2023-05-07T15:28:16;4.83;;;4.50;;
1136;SDS011;557;48.466;7.950;2023-05-07T15:31:04;4.50;;;4.10;;
1136;SDS011;557;48.466;7.950;2023-05-07T15:33:52;4.60;;;4.30;;
1136;SDS011;557;48.466;7.950;2023-05-07T15:36:39;4.07;;;3.77;;
1136;SDS011;557;48.466;7.950;2023-05-07T15:39:27;4.13;;;3.83;;
1136;SDS011;557;48.466;7.950;2023-05-07T15:42:15;4.87;;;4.57;;
1136;SDS011;557;48.466;7.950;2023-05-07T15:45:03;4.83;;;4.43;;
1136;SDS011;557;48.466;7.950;2023-05-07T15:47:51;4.40;;;4.00;;
1136;SDS011;557;48.466;7.950;2023-05-07T15:50:38;4.30;;;4.00;;
1136;SDS011;557;48.466;7.950;2023-05-07T15:53:26;4.10;;;3.80;;
1136;SDS011;557;48.466;7.950;2023-05-07T15:56:13;4.53;;;4.23;;
1136;SDS011;557;48.466;7.950;2023-05-07T15:59:02;5.03;;;4.63;;
1136;SDS011;557;48.466;7.950;2023-05-07T16:01:49;5.10;;;4.80;;
1136;SDS011;557;48.466;7.950;2023-05-07T16:04:37;5.60;;;5.30;;
1136;SDS011;557;48.466;7.950;2023-05-07T16:07:26;6.60;;;6.20;;
1136;SDS011;557;48.466;7.950;2023-05-07T16:10:13;6.37;;;6.00;;
1136;SDS011;557;48.466;7.950;2023-05-07T16:13:00;6.30;;;5.90;;
1136;SDS011;557;48.466;7.950;2023-05-07T16:15:51;6.07;;;5.67;;
1136;SDS011;557;48.466;7.950;2023-05-07T16:18:42;6.23;;;5.83;;
1136;SDS011;557;48.466;7.950;2023-05-07T16:21:29;6.27;;;5.87;;
1136;SDS011;557;48.466;7.950;2023-05-07T16:24:17;6.30;;;5.80;;
1136;SDS011;557;48.466;7.950;2023-05-07T16:27:04;6.30;;;5.90;;
1136;SDS011;557;48.466;7.950;2023-05-07T16:29:52;7.10;;;6.70;;
1136;SDS011;557;48.466;7.950;2023-05-07T16:32:40;6.47;;;6.13;;
1136;SDS011;557;48.466;7.950;2023-05-07T16:35:28;6.93;;;6.43;;
1136;SDS011;557;48.466;7.950;2023-05-07T16:38:15;6.50;;;6.00;;
1136;SDS011;557;48.466;7.950;2023-05-07T16:41:03;5.77;;;5.47;;
1136;SDS011;557;48.466;7.950;2023-05-07T16:43:50;6.00;;;5.60;;
1136;SDS011;557;48.466;7.950;2023-05-07T16:46:38;5.90;;;5.60;;
1136;SDS011;557;48.466;7.950;2023-05-07T16:49:26;7.83;;;7.23;;
1136;SDS011;557;48.466;7.950;2023-05-07T16:52:14;7.40;;;6.90;;
1136;SDS011;557;48.466;7.950;2023-05-07T16:55:01;7.37;;;6.90;;
1136;SDS011;557;48.466;7.950;2023-05-07T16:57:49;7.67;;;7.27;;
1136;SDS011;557;48.466;7.950;2023-05-07T17:00:36;6.90;;;6.50;;
1136;SDS011;557;48.466;7.950;2023-05-07T17:03:24;7.00;;;6.50;;
1136;SDS011;557;48.466;7.950;2023-05-07T17:06:12;7.33;;;6.83;;
1136;SDS011;557;48.466;7.950;2023-05-07T17:09:00;7.20;;;6.80;;
1136;SDS011;557;48.466;7.950;2023-05-07T17:11:47;6.90;;;6.40;;
1136;SDS011;557;48.466;7.950;2023-05-07T17:14:35;6.57;;;6.20;;
1136;SDS011;557;48.466;7.950;2023-05-07T17:17:22;6.77;;;6.37;;
1136;SDS011;557;48.466;7.950;2023-05-07T17:20:10;6.73;;;6.33;;
1136;SDS011;557;48.466;7.950;2023-05-07T17:22:59;6.60;;;6.20;;
1136;SDS011;557;48.466;7.950;2023-05-07T17:25:47;7.30;;;6.80;;
1136;SDS011;557;48.466;7.950;2023-05-07T17:28:34;7.33;;;6.80;;
1136;SDS011;557;48.466;7.950;2023-05-07T17:31:21;7.67;;;7.07;;
1136;SDS011;557;48.466;7.950;2023-05-07T17:34:09;7.00;;;6.40;;
1136;SDS011;557;48.466;7.950;2023-05-07T17:36:56;6.90;;;6.40;;
1136;SDS011;557;48.466;7.950;2023-05-07T17:39:45;7.40;;;6.90;;
1136;SDS011;557;48.466;7.950;2023-05-07T17:42:33;7.10;;;6.67;;
1136;SDS011;557;48.466;7.950;2023-05-07T17:45:21;6.90;;;6.40;;
1136;SDS011;557;48.466;7.950;2023-05-07T17:48:08;6.67;;;6.17;;
1136;SDS011;557;48.466;7.950;2023-05-07T17:50:59;5.80;;;5.50;;
1136;SDS011;557;48.466;7.950;2023-05-07T17:53:47;6.00;;;5.60;;
1136;SDS011;557;48.466;7.950;2023-05-07T17:56:37;8.17;;;6.40;;